Time;durP1;ratioP1;P1;durP2;ratioP2;P2;SDS_P1;SDS_P2;PMS_P1;PMS_P2;Temp;Humidity;BMP_temperature;BMP_pressure;BME280_temperature;BME280_humidity;BME280_pressure;Samples;Min_cycle;Max_cycle;Signal;HPM_P1;HPM_P2
2022/09/17 00:01:51;;;;;;;14.47;9.00;;;21.40;47.40;;;;;;4999941;28;20395;-76
2022/09/17 00:04:19;;;;;;;13.03;9.13;;;21.40;47.70;;;;;;5012689;28;20440;-77
2022/09/17 00:06:49;;;;;;;10.20;7.83;;;21.40;47.40;;;;;;5011887;28;20428;-76
2022/09/17 00:09:16;;;;;;;11.70;8.67;;;21.40;47.70;;;;;;5011823;28;20510;-79
2022/09/17 00:11:45;;;;;;;11.30;8.27;;;21.40;47.60;;;;;;5012269;28;20448;-75
2022/09/17 00:14:13;;;;;;;12.47;8.40;;;21.40;47.50;;;;;;5011956;28;20437;-76
2022/09/17 00:16:43;;;;;;;13.23;7.80;;;21.40;47.60;;;;;;5009729;28;20514;-76
2022/09/17 00:19:13;;;;;;;15.80;9.67;;;21.40;47.60;;;;;;4996111;28;20510;-76
2022/09/17 00:21:41;;;;;;;10.70;8.20;;;21.40;47.70;;;;;;5012081;28;20437;-77
2022/09/17 00:24:12;;;;;;;11.80;8.50;;;21.40;47.60;;;;;;5011826;28;20460;-77
2022/09/17 00:26:40;;;;;;;13.30;9.47;;;21.40;47.80;;;;;;5012131;28;20447;-77
2022/09/17 00:29:08;;;;;;;11.93;9.30;;;21.40;47.70;;;;;;5011783;28;20448;-78
2022/09/17 00:31:36;;;;;;;13.67;9.83;;;21.30;47.50;;;;;;5011753;28;20467;-77
2022/09/17 00:34:05;;;;;;;15.30;9.63;;;21.30;47.60;;;;;;5006822;28;20512;-77
2022/09/17 00:36:34;;;;;;;14.90;9.40;;;21.30;47.50;;;;;;5000974;28;20444;-77
2022/09/17 00:39:02;;;;;;;13.03;9.50;;;21.30;47.60;;;;;;5011751;28;20460;-75
2022/09/17 00:41:32;;;;;;;15.23;10.00;;;21.30;47.70;;;;;;5011563;28;20480;-77
2022/09/17 00:44:01;;;;;;;13.60;9.87;;;21.30;47.60;;;;;;5011766;28;20436;-77
2022/09/17 00:46:31;;;;;;;14.00;9.10;;;21.30;47.60;;;;;;5011494;28;20449;-78
2022/09/17 00:49:01;;;;;;;15.80;9.80;;;21.30;47.70;;;;;;5011807;28;20442;-77
2022/09/17 00:51:34;;;;;;;14.73;9.07;;;21.30;47.70;;;;;;5007744;28;20448;-77
2022/09/17 00:54:03;;;;;;;12.30;8.90;;;21.30;47.70;;;;;;4993691;28;20519;-79
2022/09/17 00:56:34;;;;;;;12.27;8.80;;;21.20;47.70;;;;;;4989039;28;20457;-76
2022/09/17 00:59:02;;;;;;;13.10;8.83;;;21.20;47.60;;;;;;4994947;28;20464;-77
2022/09/17 01:01:30;;;;;;;13.20;9.00;;;21.20;47.60;;;;;;4991781;28;20531;-77
2022/09/17 01:03:58;;;;;;;12.03;8.60;;;21.20;47.90;;;;;;4994542;28;20453;-78
2022/09/17 01:06:30;;;;;;;12.70;9.30;;;21.20;47.70;;;;;;4991659;28;20441;-77
2022/09/17 01:09:07;;;;;;;14.37;9.13;;;21.20;47.70;;;;;;5010172;28;20448;-76
2022/09/17 01:11:46;;;;;;;11.80;9.10;;;21.20;47.70;;;;;;5011244;28;20822;-76
2022/09/17 01:14:21;;;;;;;11.90;8.70;;;21.20;47.70;;;;;;5012691;28;21001;-76
2022/09/17 01:16:54;;;;;;;14.27;9.40;;;21.20;47.90;;;;;;4990611;28;20437;-76
2022/09/17 01:19:40;;;;;;;11.90;8.27;;;21.20;47.80;;;;;;4989983;28;20445;-77
2022/09/17 01:22:09;;;;;;;13.83;8.50;;;21.10;47.70;;;;;;4991428;28;20445;-77
2022/09/17 01:24:46;;;;;;;14.20;8.43;;;21.20;47.80;;;;;;4997079;28;20453;-77
2022/09/17 01:27:39;;;;;;;12.70;8.40;;;21.10;47.70;;;;;;4987766;28;20457;-77
2022/09/17 01:30:37;;;;;;;12.73;8.57;;;21.10;47.80;;;;;;4987769;28;20982;-77
2022/09/17 01:33:07;;;;;;;12.40;8.33;;;21.10;47.80;;;;;;4994940;28;20441;-77
2022/09/17 01:35:38;;;;;;;13.03;9.20;;;21.10;47.70;;;;;;4994935;28;20484;-79
2022/09/17 01:38:10;;;;;;;16.20;8.70;;;21.10;47.90;;;;;;5001341;28;20448;-77
2022/09/17 01:40:40;;;;;;;11.47;8.40;;;21.10;47.80;;;;;;5006076;28;20468;-77
2022/09/17 01:43:11;;;;;;;10.03;7.63;;;21.10;47.90;;;;;;5014885;28;20452;-77
2022/09/17 01:45:41;;;;;;;11.53;7.47;;;21.10;47.70;;;;;;5014583;28;20506;-77
2022/09/17 01:48:11;;;;;;;11.93;8.13;;;21.10;47.80;;;;;;5014143;28;20448;-77
2022/09/17 01:50:41;;;;;;;9.40;7.10;;;21.00;47.80;;;;;;5014370;28;20469;-76
2022/09/17 01:53:09;;;;;;;12.83;7.70;;;21.00;47.90;;;;;;5009776;28;20449;-76
2022/09/17 01:55:38;;;;;;;10.43;7.17;;;21.10;47.90;;;;;;5002354;28;20449;-76
2022/09/17 01:58:08;;;;;;;10.37;7.90;;;21.00;47.80;;;;;;4995454;28;20445;-77
2022/09/17 02:00:36;;;;;;;9.70;7.00;;;21.00;47.90;;;;;;4994692;28;20474;-78
2022/09/17 02:03:06;;;;;;;9.23;6.67;;;21.00;48.20;;;;;;4997874;28;20970;-77
2022/09/17 02:05:35;;;;;;;11.20;7.00;;;21.00;47.90;;;;;;4996401;28;20462;-77
2022/09/17 02:08:05;;;;;;;10.23;7.30;;;21.00;48.10;;;;;;4999061;28;20453;-77
2022/09/17 02:10:35;;;;;;;10.47;7.03;;;21.00;47.80;;;;;;5002636;28;20473;-77
2022/09/17 02:13:07;;;;;;;11.53;7.80;;;21.00;48.00;;;;;;5004403;28;20434;-77
2022/09/17 02:15:37;;;;;;;10.10;6.73;;;21.00;48.10;;;;;;4995528;28;20525;-78
2022/09/17 02:18:07;;;;;;;10.77;7.03;;;21.10;48.10;;;;;;4996760;28;20438;-78
2022/09/17 02:20:38;;;;;;;9.60;6.40;;;21.10;48.00;;;;;;4996596;28;20536;-78
2022/09/17 02:23:07;;;;;;;11.13;7.17;;;21.00;47.80;;;;;;4994608;28;20492;-77
2022/09/17 02:25:38;;;;;;;10.80;7.00;;;21.00;48.00;;;;;;4999850;28;20467;-77
2022/09/17 02:28:08;;;;;;;9.17;6.50;;;21.00;48.00;;;;;;5000411;28;20439;-79
2022/09/17 02:30:36;;;;;;;10.40;6.40;;;21.00;48.10;;;;;;5013860;28;20457;-77
2022/09/17 02:33:05;;;;;;;9.57;6.80;;;21.00;48.00;;;;;;5000566;28;20449;-77
2022/09/17 02:35:37;;;;;;;11.03;7.17;;;21.00;47.90;;;;;;4996338;28;20492;-77
2022/09/17 02:38:05;;;;;;;9.63;6.13;;;21.00;48.00;;;;;;4996227;28;20429;-79
2022/09/17 02:40:36;;;;;;;12.10;6.37;;;21.00;48.00;;;;;;4994803;28;20519;-79
2022/09/17 02:43:10;;;;;;;8.23;6.60;;;20.90;48.00;;;;;;5004436;28;20451;-78
2022/09/17 02:45:45;;;;;;;8.73;5.93;;;21.00;47.90;;;;;;5013946;28;20443;-78
2022/09/17 02:48:24;;;;;;;15.50;6.20;;;20.90;47.90;;;;;;4986746;28;20464;-77
2022/09/17 02:51:21;;;;;;;10.47;6.87;;;20.90;48.10;;;;;;4993889;28;20472;-79
2022/09/17 02:53:56;;;;;;;8.40;6.00;;;20.90;48.10;;;;;;4993635;28;20445;-77
2022/09/17 02:56:28;;;;;;;10.77;5.70;;;20.90;48.20;;;;;;4993865;28;20449;-77
2022/09/17 02:58:58;;;;;;;7.40;5.70;;;20.90;48.00;;;;;;5000722;28;20501;-77
2022/09/17 03:01:33;;;;;;;8.83;6.00;;;20.90;48.10;;;;;;5000917;28;20504;-77
2022/09/17 03:04:01;;;;;;;7.27;5.43;;;20.90;48.20;;;;;;4994742;28;20445;-77
2022/09/17 03:06:32;;;;;;;6.57;5.30;;;20.90;48.00;;;;;;4994159;28;20771;-77
2022/09/17 03:09:00;;;;;;;7.73;5.50;;;20.90;48.20;;;;;;5001901;28;20463;-78
2022/09/17 03:11:27;;;;;;;7.20;5.80;;;20.90;48.00;;;;;;5000700;28;20457;-78
2022/09/17 03:13:57;;;;;;;8.53;5.30;;;20.80;48.00;;;;;;4997896;28;20479;-78
2022/09/17 03:16:26;;;;;;;6.77;5.03;;;20.80;48.20;;;;;;5005627;28;20437;-78
2022/09/17 03:18:54;;;;;;;7.07;5.20;;;20.80;48.10;;;;;;5009269;28;20471;-78
2022/09/17 03:21:22;;;;;;;7.30;4.90;;;20.80;48.00;;;;;;5016512;28;20472;-78
2022/09/17 03:23:51;;;;;;;7.53;5.60;;;20.80;48.40;;;;;;5016741;28;20444;-78
2022/09/17 03:26:20;;;;;;;7.97;5.00;;;20.80;48.20;;;;;;5013731;28;20954;-77
2022/09/17 03:28:48;;;;;;;8.10;4.70;;;20.80;48.20;;;;;;5014541;28;20472;-77
2022/09/17 03:31:16;;;;;;;8.20;5.50;;;20.80;48.10;;;;;;5014251;28;20448;-77
2022/09/17 03:33:44;;;;;;;7.90;5.23;;;20.80;48.30;;;;;;4999318;28;20492;-77
2022/09/17 03:36:12;;;;;;;8.27;5.87;;;20.70;48.10;;;;;;4999575;28;20505;-78
2022/09/17 03:38:40;;;;;;;6.20;4.80;;;20.70;48.30;;;;;;4993779;28;20452;-79
2022/09/17 03:41:10;;;;;;;6.53;4.80;;;20.70;48.30;;;;;;4995113;28;20464;-78
2022/09/17 03:43:38;;;;;;;5.70;4.97;;;20.70;48.30;;;;;;4995472;28;20433;-78
2022/09/17 03:46:06;;;;;;;8.60;5.30;;;20.70;48.30;;;;;;4995155;28;20916;-78
2022/09/17 03:48:36;;;;;;;6.97;5.43;;;20.70;48.40;;;;;;4994265;28;20940;-77
2022/09/17 03:51:04;;;;;;;7.13;5.10;;;20.70;48.30;;;;;;5001139;28;20481;-77
2022/09/17 03:53:32;;;;;;;5.13;4.50;;;20.70;48.30;;;;;;5010403;28;20518;-79
2022/09/17 03:56:00;;;;;;;6.10;4.60;;;20.70;48.50;;;;;;5012350;28;20451;-77
2022/09/17 03:58:29;;;;;;;6.20;4.67;;;20.60;48.30;;;;;;5011908;28;20448;-77
2022/09/17 04:00:57;;;;;;;6.07;4.50;;;20.60;48.30;;;;;;5012125;28;20444;-77
2022/09/17 04:03:25;;;;;;;7.40;5.17;;;20.60;48.30;;;;;;5013990;28;21064;-79
2022/09/17 04:05:53;;;;;;;6.63;5.13;;;20.60;48.40;;;;;;5006414;28;20461;-79
2022/09/17 04:08:22;;;;;;;6.03;4.40;;;20.60;48.40;;;;;;5000785;28;20503;-78
2022/09/17 04:10:50;;;;;;;7.17;4.23;;;20.60;48.20;;;;;;5014702;28;20468;-79
2022/09/17 04:13:18;;;;;;;5.50;4.07;;;20.60;48.50;;;;;;4998580;28;20465;-78
2022/09/17 04:15:48;;;;;;;6.80;4.10;;;20.60;49.00;;;;;;4996331;28;20449;-78
2022/09/17 04:18:16;;;;;;;6.60;4.53;;;20.60;48.50;;;;;;4995062;28;20453;-78
2022/09/17 04:20:44;;;;;;;7.47;4.40;;;20.50;48.40;;;;;;4994143;28;20498;-78
2022/09/17 04:23:13;;;;;;;8.87;4.70;;;20.50;48.50;;;;;;4992793;28;20531;-78
2022/09/17 04:25:40;;;;;;;5.47;4.37;;;20.50;48.40;;;;;;5002508;28;20430;-78
2022/09/17 04:28:08;;;;;;;7.07;4.40;;;20.40;48.40;;;;;;4990853;28;20456;-79
2022/09/17 04:30:36;;;;;;;6.33;3.77;;;20.40;48.60;;;;;;4995345;28;20470;-78
2022/09/17 04:33:06;;;;;;;6.00;4.37;;;20.50;48.50;;;;;;4995822;28;20432;-78
2022/09/17 04:35:33;;;;;;;4.60;3.50;;;20.40;48.50;;;;;;4991623;28;20441;-77
2022/09/17 04:38:01;;;;;;;4.77;4.20;;;20.40;48.60;;;;;;4993341;28;20499;-78
2022/09/17 04:40:29;;;;;;;6.30;3.70;;;20.40;48.50;;;;;;4998376;28;20472;-77
2022/09/17 04:43:01;;;;;;;4.93;3.90;;;20.40;48.40;;;;;;4993334;28;20548;-77
2022/09/17 04:45:32;;;;;;;4.70;3.90;;;20.40;48.80;;;;;;4992037;28;20491;-77
2022/09/17 04:48:00;;;;;;;7.73;4.43;;;20.40;48.40;;;;;;4995678;28;20468;-78
2022/09/17 04:50:30;;;;;;;5.93;4.23;;;20.40;48.70;;;;;;4949819;28;1390893;-78
2022/09/17 04:52:58;;;;;;;5.97;4.20;;;20.40;48.70;;;;;;5000096;28;20441;-77
2022/09/17 04:55:26;;;;;;;8.10;4.40;;;20.40;48.50;;;;;;5004386;28;20460;-77
2022/09/17 04:57:54;;;;;;;5.13;4.13;;;20.40;48.50;;;;;;5008733;28;20438;-77
2022/09/17 05:00:22;;;;;;;5.77;4.17;;;20.40;48.50;;;;;;4995829;28;20469;-78
2022/09/17 05:02:51;;;;;;;5.33;3.83;;;20.40;48.50;;;;;;4997171;28;20488;-77
2022/09/17 05:05:19;;;;;;;7.23;4.30;;;20.40;48.50;;;;;;4998161;28;20449;-77
2022/09/17 05:07:48;;;;;;;4.87;3.63;;;20.30;48.50;;;;;;4995529;28;20484;-76
2022/09/17 05:10:17;;;;;;;4.90;3.60;;;20.30;48.60;;;;;;4998626;28;20479;-76
2022/09/17 05:12:48;;;;;;;3.63;3.33;;;20.30;48.60;;;;;;5001224;28;20444;-77
2022/09/17 05:15:16;;;;;;;6.50;4.00;;;20.30;48.70;;;;;;5015350;28;20437;-77
2022/09/17 05:17:44;;;;;;;7.17;4.77;;;20.30;48.60;;;;;;5015330;28;20495;-77
2022/09/17 05:20:12;;;;;;;6.53;4.20;;;20.30;48.50;;;;;;5015460;28;20456;-77
2022/09/17 05:22:42;;;;;;;4.50;3.73;;;20.30;48.40;;;;;;5015515;28;20480;-77
2022/09/17 05:25:11;;;;;;;7.00;4.10;;;20.30;48.60;;;;;;5015296;28;20441;-77
2022/09/17 05:27:39;;;;;;;6.10;4.30;;;20.20;48.60;;;;;;5007426;28;20457;-77
2022/09/17 05:30:08;;;;;;;8.50;3.97;;;20.20;48.50;;;;;;5004961;28;20476;-78
2022/09/17 05:32:36;;;;;;;5.37;4.43;;;20.20;48.60;;;;;;5001428;28;20464;-76
2022/09/17 05:35:05;;;;;;;5.30;3.97;;;20.20;48.50;;;;;;4996861;28;20955;-77
2022/09/17 05:37:33;;;;;;;5.00;4.00;;;20.20;48.60;;;;;;4997323;28;20457;-77
2022/09/17 05:40:02;;;;;;;4.23;3.77;;;20.20;48.60;;;;;;4996652;28;20477;-78
2022/09/17 05:42:31;;;;;;;4.63;3.30;;;20.20;48.50;;;;;;4996323;28;20495;-78
2022/09/17 05:44:59;;;;;;;5.80;4.00;;;20.10;48.50;;;;;;4995757;28;20437;-78
2022/09/17 05:47:26;;;;;;;5.40;3.70;;;20.10;48.60;;;;;;5003059;28;20434;-77
2022/09/17 05:49:54;;;;;;;6.43;4.07;;;20.10;48.60;;;;;;5013655;28;20464;-77
2022/09/17 05:52:22;;;;;;;6.03;3.83;;;20.10;48.40;;;;;;5017179;28;20440;-78
2022/09/17 05:54:50;;;;;;;4.90;3.70;;;20.10;48.60;;;;;;5001463;28;20460;-78
2022/09/17 05:57:19;;;;;;;5.37;3.40;;;20.10;48.60;;;;;;4997122;28;20441;-77
2022/09/17 05:59:48;;;;;;;4.40;3.50;;;20.10;48.60;;;;;;4997236;28;20464;-79
2022/09/17 06:02:16;;;;;;;4.90;3.60;;;20.00;48.60;;;;;;4993608;28;20496;-78
2022/09/17 06:04:44;;;;;;;9.20;4.07;;;20.00;48.70;;;;;;4999260;28;20448;-78
2022/09/17 06:07:12;;;;;;;3.73;3.37;;;20.10;48.70;;;;;;5009049;28;20495;-77
2022/09/17 06:09:40;;;;;;;6.50;3.90;;;20.10;48.60;;;;;;5014291;28;20463;-78
2022/09/17 06:12:08;;;;;;;4.33;3.27;;;20.00;48.50;;;;;;5006212;28;20450;-78
2022/09/17 06:14:36;;;;;;;3.90;3.17;;;20.00;48.60;;;;;;4998101;28;20438;-78
2022/09/17 06:17:05;;;;;;;5.40;3.27;;;20.00;48.60;;;;;;4995729;28;20465;-78
2022/09/17 06:19:34;;;;;;;5.43;3.20;;;20.00;48.60;;;;;;5002100;28;20479;-78
2022/09/17 06:22:01;;;;;;;4.50;3.20;;;20.00;48.50;;;;;;5008066;28;20444;-78
2022/09/17 06:24:30;;;;;;;5.03;3.17;;;20.00;48.40;;;;;;4997428;28;20469;-78
2022/09/17 06:26:58;;;;;;;8.83;3.23;;;20.00;48.50;;;;;;4995541;28;20504;-79
2022/09/17 06:29:26;;;;;;;4.50;3.17;;;20.00;48.50;;;;;;4995851;28;20461;-79
2022/09/17 06:31:54;;;;;;;5.53;3.40;;;20.10;48.60;;;;;;4996016;28;20448;-79
2022/09/17 06:34:24;;;;;;;5.67;3.40;;;20.10;48.60;;;;;;5000853;28;20456;-78
2022/09/17 06:36:52;;;;;;;4.63;3.07;;;20.10;48.60;;;;;;4993549;28;20449;-79
2022/09/17 06:39:20;;;;;;;5.73;3.40;;;20.10;48.30;;;;;;4995864;28;20469;-78
2022/09/17 06:41:48;;;;;;;4.17;3.10;;;20.10;48.30;;;;;;4996722;28;20457;-78
2022/09/17 06:44:16;;;;;;;5.70;2.90;;;20.10;48.40;;;;;;4994298;28;20480;-79
2022/09/17 06:46:44;;;;;;;3.40;2.63;;;20.10;48.50;;;;;;4998088;28;20445;-79
2022/09/17 06:49:12;;;;;;;4.80;3.13;;;20.10;48.40;;;;;;5000676;28;20476;-79
2022/09/17 06:51:42;;;;;;;3.23;2.70;;;20.10;48.50;;;;;;5002677;28;20449;-79
2022/09/17 06:54:10;;;;;;;5.10;3.07;;;20.10;48.30;;;;;;5015632;28;20452;-79
2022/09/17 06:56:38;;;;;;;5.00;3.27;;;20.20;48.30;;;;;;4995638;28;20453;-79
2022/09/17 06:59:06;;;;;;;7.00;3.63;;;20.20;48.40;;;;;;4993400;28;20527;-78
2022/09/17 07:01:34;;;;;;;6.07;3.20;;;20.20;48.20;;;;;;4991180;28;20450;-79
2022/09/17 07:04:03;;;;;;;4.87;3.10;;;20.20;49.00;;;;;;4996640;28;20480;-76
2022/09/17 07:06:31;;;;;;;6.20;3.20;;;20.20;48.20;;;;;;4991553;28;21016;-79
2022/09/17 07:09:00;;;;;;;3.73;2.80;;;20.20;48.10;;;;;;4992065;28;20481;-79
2022/09/17 07:11:30;;;;;;;4.03;2.90;;;20.20;48.20;;;;;;4995220;28;20452;-79
2022/09/17 07:13:57;;;;;;;4.10;2.50;;;20.20;48.20;;;;;;4989024;28;20492;-79
2022/09/17 07:16:26;;;;;;;3.63;2.70;;;20.30;48.20;;;;;;4993631;28;21011;-79
2022/09/17 07:18:55;;;;;;;4.13;2.80;;;20.30;48.20;;;;;;4997333;28;20473;-80
2022/09/17 07:21:23;;;;;;;5.00;2.60;;;20.30;48.00;;;;;;5004550;28;20464;-80
2022/09/17 07:23:51;;;;;;;4.40;3.33;;;20.30;48.00;;;;;;4982584;28;20860;-80
2022/09/17 07:26:21;;;;;;;5.97;2.93;;;20.40;47.70;;;;;;4992384;28;20453;-79
2022/09/17 07:28:48;;;;;;;4.13;2.50;;;20.40;47.50;;;;;;4993967;28;20485;-79
2022/09/17 07:31:16;;;;;;;7.43;2.90;;;20.40;47.50;;;;;;4994524;28;20453;-79
2022/09/17 07:33:45;;;;;;;3.00;2.60;;;20.50;47.50;;;;;;4992199;28;20543;-77
2022/09/17 07:36:13;;;;;;;5.30;3.20;;;20.50;47.20;;;;;;4998377;28;20479;-78
2022/09/17 07:38:41;;;;;;;4.70;3.10;;;20.50;47.00;;;;;;5000494;28;20547;-77
2022/09/17 07:41:11;;;;;;;4.33;3.30;;;20.50;47.10;;;;;;4984318;28;20461;-78
2022/09/17 07:43:41;;;;;;;5.43;3.03;;;20.60;47.10;;;;;;4994857;28;20480;-78
2022/09/17 07:46:13;;;;;;;6.60;2.73;;;20.70;46.90;;;;;;4991106;28;20477;-78
2022/09/17 07:48:41;;;;;;;4.00;2.97;;;20.70;46.80;;;;;;4992201;28;20477;-78
2022/09/17 07:51:15;;;;;;;5.00;2.83;;;20.70;46.70;;;;;;4990623;28;20485;-78
2022/09/17 07:53:43;;;;;;;4.07;2.53;;;20.80;46.80;;;;;;5003658;28;20449;-78
2022/09/17 07:56:11;;;;;;;4.23;3.20;;;20.90;46.60;;;;;;4992658;28;20453;-78
2022/09/17 07:58:41;;;;;;;9.40;3.43;;;20.90;46.60;;;;;;4992453;28;20445;-78
2022/09/17 08:01:10;;;;;;;7.40;3.23;;;21.00;46.30;;;;;;4992452;28;20449;-78
2022/09/17 08:03:39;;;;;;;10.37;3.30;;;21.10;46.40;;;;;;4992500;28;20481;-78
2022/09/17 08:06:08;;;;;;;4.70;3.50;;;21.10;46.00;;;;;;4992592;28;20449;-77
2022/09/17 08:08:36;;;;;;;7.07;3.10;;;21.30;46.30;;;;;;4990973;28;20493;-78
2022/09/17 08:11:05;;;;;;;8.07;3.03;;;21.40;46.10;;;;;;5003130;28;20448;-79
2022/09/17 08:13:32;;;;;;;4.70;3.00;;;21.50;45.90;;;;;;5006935;28;20544;-77
2022/09/17 08:16:03;;;;;;;4.17;2.90;;;21.70;46.00;;;;;;5011625;28;20914;-77
2022/09/17 08:18:31;;;;;;;8.23;3.33;;;21.90;45.80;;;;;;5011596;28;20504;-77
2022/09/17 08:20:59;;;;;;;5.03;3.20;;;22.00;45.50;;;;;;5000080;28;20431;-77
2022/09/17 08:23:27;;;;;;;6.17;3.00;;;22.10;45.30;;;;;;4991081;28;20441;-79
2022/09/17 08:25:55;;;;;;;7.03;3.50;;;22.30;45.20;;;;;;4992405;28;20511;-79
2022/09/17 08:28:24;;;;;;;5.43;3.57;;;22.50;45.00;;;;;;4992226;28;20441;-78
2022/09/17 08:30:59;;;;;;;5.53;3.10;;;22.70;44.90;;;;;;4984935;28;20512;-79
2022/09/17 08:33:30;;;;;;;5.43;3.20;;;22.90;44.80;;;;;;4992175;28;20472;-78
2022/09/17 08:35:59;;;;;;;6.70;3.87;;;23.00;44.40;;;;;;4987914;28;20438;-78
2022/09/17 08:38:27;;;;;;;7.50;4.23;;;23.10;44.30;;;;;;4991272;28;20460;-77
2022/09/17 08:41:01;;;;;;;7.27;4.10;;;23.00;44.30;;;;;;5004103;28;20496;-78
2022/09/17 08:43:28;;;;;;;6.20;4.60;;;22.90;44.30;;;;;;5011718;28;20428;-78
2022/09/17 08:45:57;;;;;;;10.00;4.70;;;22.80;44.50;;;;;;5011103;28;20505;-78
2022/09/17 08:48:25;;;;;;;6.57;4.67;;;22.70;44.70;;;;;;5011865;28;20479;-78
2022/09/17 08:50:55;;;;;;;9.40;5.10;;;22.70;44.80;;;;;;5011585;28;20477;-78
2022/09/17 08:53:37;;;;;;;9.37;5.10;;;22.60;44.70;;;;;;5009881;28;20448;-78
2022/09/17 08:56:08;;;;;;;10.53;5.30;;;22.60;44.90;;;;;;5000573;28;20445;-76
2022/09/17 08:58:48;;;;;;;6.63;4.73;;;22.60;45.00;;;;;;4992064;28;20461;-78
2022/09/17 09:01:24;;;;;;;8.80;5.33;;;22.50;44.90;;;;;;4992077;28;20460;-78
2022/09/17 09:04:24;;;;;;;11.27;5.40;;;22.50;45.10;;;;;;4991877;28;20537;-78
2022/09/17 09:06:55;;;;;;;8.47;5.03;;;22.50;45.20;;;;;;4988693;28;20427;-78
2022/09/17 09:09:24;;;;;;;8.30;5.40;;;22.40;45.10;;;;;;4991927;28;21011;-78
2022/09/17 09:11:56;;;;;;;11.00;5.40;;;22.40;45.20;;;;;;4983859;28;20427;-78
2022/09/17 09:14:26;;;;;;;7.80;5.13;;;22.40;45.30;;;;;;4997723;28;20407;-78
2022/09/17 09:16:54;;;;;;;8.80;5.50;;;22.40;45.30;;;;;;4998805;28;20459;-78
2022/09/17 09:19:23;;;;;;;7.43;5.60;;;22.40;45.30;;;;;;5011069;28;20994;-76
2022/09/17 09:22:00;;;;;;;10.80;6.30;;;22.40;45.50;;;;;;5011222;28;20448;-76
2022/09/17 09:24:34;;;;;;;12.20;6.33;;;22.40;45.60;;;;;;5002068;28;20528;-76
2022/09/17 09:27:05;;;;;;;8.93;5.60;;;22.30;45.50;;;;;;4992629;28;20464;-76
2022/09/17 09:29:37;;;;;;;9.43;6.30;;;22.30;45.60;;;;;;4991918;28;20482;-76
2022/09/17 09:32:15;;;;;;;8.87;5.60;;;22.30;45.70;;;;;;4992190;28;20473;-76
2022/09/17 09:34:43;;;;;;;10.80;6.37;;;22.30;45.70;;;;;;4992578;28;20995;-75
2022/09/17 09:37:16;;;;;;;10.50;6.03;;;22.30;45.70;;;;;;4995834;28;20455;-76
2022/09/17 09:39:44;;;;;;;10.47;5.83;;;22.30;45.90;;;;;;4995503;28;20480;-76
2022/09/17 09:42:16;;;;;;;10.00;6.23;;;22.30;45.80;;;;;;4995914;28;20508;-76
2022/09/17 09:44:44;;;;;;;8.63;5.63;;;22.40;45.90;;;;;;4995714;28;20444;-77
2022/09/17 09:47:21;;;;;;;10.50;5.93;;;22.30;45.60;;;;;;4989897;28;20477;-76
2022/09/17 09:50:31;;;;;;;7.80;6.00;;;22.40;45.70;;;;;;4997578;28;20504;-76
2022/09/17 09:53:25;;;;;;;11.17;6.77;;;22.40;45.70;;;;;;4985510;28;20449;-76
2022/09/17 09:56:02;;;;;;;12.53;6.93;;;22.30;45.70;;;;;;4995532;28;20449;-76
2022/09/17 09:58:32;;;;;;;12.70;6.40;;;22.20;45.90;;;;;;4995373;28;20444;-76
2022/09/17 10:01:00;;;;;;;12.07;7.30;;;22.20;45.80;;;;;;4995153;28;20996;-76
2022/09/17 10:03:30;;;;;;;10.37;6.47;;;22.10;46.10;;;;;;4995239;28;20481;-76
2022/09/17 10:05:59;;;;;;;10.47;5.53;;;22.10;46.10;;;;;;4997540;28;20473;-80
2022/09/17 10:08:30;;;;;;;11.47;4.20;;;22.00;46.60;;;;;;5000982;28;20457;-80
2022/09/17 10:10:59;;;;;;;19.23;4.23;;;22.50;49.90;;;;;;4999488;28;20450;-80
2022/09/17 10:13:29;;;;;;;20.33;6.40;;;22.90;50.20;;;;;;4998950;28;20457;-79
2022/09/17 10:15:57;;;;;;;37.13;15.00;;;23.40;50.50;;;;;;4999345;28;20473;-78
2022/09/17 10:18:25;;;;;;;76.20;39.00;;;23.70;50.30;;;;;;5005683;28;20454;-79
2022/09/17 10:20:55;;;;;;;91.63;58.80;;;23.90;50.80;;;;;;4997488;28;20479;-81
2022/09/17 10:23:25;;;;;;;119.23;76.07;;;24.10;51.60;;;;;;4998450;28;20432;-81
2022/09/17 10:25:55;;;;;;;119.13;79.00;;;24.40;52.70;;;;;;5002669;28;20541;-80
2022/09/17 10:28:32;;;;;;;139.97;82.40;;;24.60;53.00;;;;;;4999475;28;20484;-80
2022/09/17 10:31:02;;;;;;;117.20;83.40;;;24.70;53.20;;;;;;5000802;28;20419;-80
2022/09/17 10:33:36;;;;;;;121.03;81.27;;;25.00;54.30;;;;;;4979239;28;20475;-79
2022/09/17 10:36:06;;;;;;;126.53;85.27;;;25.30;53.80;;;;;;4996969;28;20451;-80
2022/09/17 10:38:37;;;;;;;131.07;87.47;;;25.40;53.00;;;;;;5013871;28;20524;-79
2022/09/17 10:41:14;;;;;;;123.80;89.37;;;25.40;52.70;;;;;;5014743;28;20460;-83
2022/09/17 10:43:43;;;;;;;125.70;85.23;;;25.50;52.00;;;;;;4999442;28;20441;-81
2022/09/17 10:46:14;;;;;;;125.73;84.77;;;25.60;52.20;;;;;;4998785;28;20484;-80
2022/09/17 10:48:44;;;;;;;112.57;80.33;;;25.50;52.20;;;;;;4999296;28;20443;-82
2022/09/17 10:51:20;;;;;;;116.10;79.30;;;25.50;52.40;;;;;;4992502;28;20464;-79
2022/09/17 10:54:19;;;;;;;122.90;79.80;;;25.50;52.80;;;;;;4999196;28;20440;-79
2022/09/17 10:56:51;;;;;;;117.73;80.37;;;25.50;52.80;;;;;;4979709;28;20436;-79
2022/09/17 10:59:49;;;;;;;116.33;77.90;;;25.50;52.80;;;;;;4997967;28;20431;-81
2022/09/17 11:03:04;;;;;;;104.23;70.73;;;25.50;52.60;;;;;;5001073;28;20469;-79
2022/09/17 11:05:40;;;;;;;96.20;64.97;;;25.50;52.70;;;;;;4959794;28;20470;-79
2022/09/17 11:08:11;;;;;;;96.20;61.67;;;25.40;52.30;;;;;;4981373;28;20432;-78
2022/09/17 11:10:42;;;;;;;89.00;56.37;;;25.40;52.60;;;;;;4994761;28;20462;-78
2022/09/17 11:13:18;;;;;;;92.37;57.23;;;25.40;52.60;;;;;;4979493;28;20446;-78
2022/09/17 11:15:53;;;;;;;86.83;52.00;;;25.40;52.40;;;;;;4981139;28;20409;-79
2022/09/17 11:18:47;;;;;;;74.00;50.43;;;25.40;52.00;;;;;;5000712;28;20468;-79
2022/09/17 11:21:33;;;;;;;83.57;49.87;;;25.30;51.60;;;;;;4997370;28;20453;-79
2022/09/17 11:24:28;;;;;;;77.90;45.60;;;25.20;51.60;;;;;;5000260;28;20454;-79
2022/09/17 11:27:00;;;;;;;61.97;38.67;;;25.20;51.50;;;;;;4988103;28;20469;-78
2022/09/17 11:29:39;;;;;;;56.80;37.93;;;25.10;51.20;;;;;;4996819;28;20450;-81
2022/09/17 11:32:12;;;;;;;57.63;35.43;;;25.00;50.80;;;;;;4991259;28;20479;-81
2022/09/17 11:34:41;;;;;;;62.93;35.30;;;25.00;50.80;;;;;;4995694;28;20445;-79
2022/09/17 11:37:10;;;;;;;48.53;33.13;;;25.00;50.80;;;;;;4992029;28;20445;-79
2022/09/17 11:39:41;;;;;;;50.73;31.87;;;25.00;50.60;;;;;;4995443;28;20485;-78
2022/09/17 11:42:12;;;;;;;49.53;31.13;;;25.00;50.50;;;;;;4988870;28;20438;-79
2022/09/17 11:44:45;;;;;;;40.90;27.83;;;25.00;50.50;;;;;;5000396;28;20408;-79
2022/09/17 11:47:14;;;;;;;48.13;27.60;;;25.00;50.60;;;;;;4995569;28;20883;-79
2022/09/17 11:49:47;;;;;;;37.20;25.77;;;25.10;50.50;;;;;;4995270;28;20462;-77
2022/09/17 11:52:20;;;;;;;39.80;24.80;;;25.10;50.60;;;;;;4996429;28;20453;-79
2022/09/17 11:54:50;;;;;;;43.00;24.03;;;25.10;50.30;;;;;;4996336;28;20419;-79
2022/09/17 11:57:19;;;;;;;42.50;22.73;;;25.10;50.20;;;;;;4993834;28;20449;-77
2022/09/17 11:59:51;;;;;;;41.73;21.97;;;25.00;49.90;;;;;;5012003;28;20471;-78
2022/09/17 12:02:22;;;;;;;29.50;19.37;;;25.00;49.60;;;;;;5013410;28;20472;-75
2022/09/17 12:04:55;;;;;;;35.27;19.77;;;25.00;49.80;;;;;;5014884;28;20423;-77
2022/09/17 12:07:30;;;;;;;39.97;19.77;;;25.20;50.20;;;;;;5015637;28;20464;-77
2022/09/17 12:10:00;;;;;;;27.63;16.03;;;25.30;50.20;;;;;;5017230;28;20957;-76
2022/09/17 12:12:28;;;;;;;34.40;15.53;;;25.10;50.20;;;;;;5013876;28;20809;-75
2022/09/17 12:15:20;;;;;;;24.73;12.83;;;24.90;50.20;;;;;;4979676;28;20978;-76
2022/09/17 12:17:52;;;;;;;26.53;14.37;;;24.60;50.00;;;;;;4993432;28;20512;-75
2022/09/17 12:20:40;;;;;;;23.80;12.33;;;24.60;51.50;;;;;;4994345;28;20505;-76
2022/09/17 12:23:11;;;;;;;25.70;11.60;;;24.30;51.40;;;;;;4995435;28;20452;-76
2022/09/17 12:25:41;;;;;;;28.40;13.40;;;24.10;51.30;;;;;;4997279;28;20431;-74
2022/09/17 12:28:10;;;;;;;29.30;13.13;;;24.00;52.20;;;;;;4995499;28;20422;-75
2022/09/17 12:30:41;;;;;;;22.63;11.70;;;24.00;52.50;;;;;;4982176;28;20448;-75
2022/09/17 12:33:19;;;;;;;22.57;11.77;;;24.20;52.00;;;;;;5013369;28;20472;-76
2022/09/17 12:36:12;;;;;;;18.87;10.97;;;24.10;51.90;;;;;;5014943;28;20421;-75
2022/09/17 12:39:10;;;;;;;21.43;9.87;;;24.20;51.60;;;;;;4982625;28;20461;-76
2022/09/17 12:41:46;;;;;;;19.40;9.50;;;24.20;52.00;;;;;;4987133;28;20449;-75
2022/09/17 12:44:22;;;;;;;20.43;9.57;;;24.10;51.90;;;;;;4981325;28;20438;-78
2022/09/17 12:47:03;;;;;;;21.30;9.90;;;24.30;51.80;;;;;;4976159;28;20448;-76
2022/09/17 12:49:43;;;;;;;20.23;9.70;;;24.40;51.40;;;;;;5012394;28;20494;-77
2022/09/17 12:52:14;;;;;;;22.37;9.30;;;24.40;50.70;;;;;;5013354;28;20447;-77
2022/09/17 12:54:49;;;;;;;14.57;9.00;;;24.40;51.40;;;;;;5000480;28;20428;-76
2022/09/17 12:57:24;;;;;;;12.07;7.40;;;24.50;51.80;;;;;;4992707;28;20893;-77
2022/09/17 12:59:57;;;;;;;24.77;8.60;;;26.50;50.70;;;;;;4994249;28;20447;-76
2022/09/17 13:02:28;;;;;;;20.33;7.83;;;27.60;46.70;;;;;;4986807;28;20477;-76